createdAt,value
2018-11-20T00:00:39.969Z,4.40
2018-11-20T00:03:08.404Z,4.40
2018-11-20T00:05:35.992Z,4.40
2018-11-20T00:08:03.570Z,4.40
2018-11-20T00:10:31.945Z,4.30
2018-11-20T00:13:00.295Z,4.40
2018-11-20T00:15:27.895Z,4.30
2018-11-20T00:17:56.238Z,4.40
2018-11-20T00:20:23.852Z,4.40
2018-11-20T00:22:51.431Z,4.40
2018-11-20T00:25:19.896Z,4.40
2018-11-20T00:27:47.488Z,4.40
2018-11-20T00:30:15.064Z,4.30
2018-11-20T00:32:42.669Z,4.20
2018-11-20T00:35:10.247Z,4.20
2018-11-20T00:37:38.139Z,4.20
2018-11-20T00:40:05.721Z,4.20
2018-11-20T00:42:33.905Z,4.30
2018-11-20T00:45:01.532Z,4.30
2018-11-20T00:47:29.839Z,4.50
2018-11-20T00:49:57.448Z,4.50
2018-11-20T00:52:25.028Z,4.50
2018-11-20T00:54:52.629Z,4.50
2018-11-20T00:57:20.207Z,4.40
2018-11-20T00:59:48.600Z,4.30
2018-11-20T01:02:18.034Z,4.30
2018-11-20T01:04:45.617Z,4.30
2018-11-20T01:07:13.223Z,4.30
2018-11-20T01:09:41.581Z,4.20
2018-11-20T01:12:09.183Z,4.20
2018-11-20T01:14:36.761Z,4.30
2018-11-20T01:17:04.371Z,4.20
2018-11-20T01:19:31.955Z,4.20
2018-11-20T01:22:01.016Z,4.20
2018-11-20T01:24:28.602Z,4.10
2018-11-20T01:26:56.949Z,4.20
2018-11-20T01:29:24.550Z,4.20
2018-11-20T01:31:52.129Z,4.20
2018-11-20T01:34:19.735Z,4.20
2018-11-20T01:36:47.322Z,4.10
2018-11-20T01:39:16.199Z,4.10
2018-11-20T01:41:43.778Z,4.10
2018-11-20T01:44:12.119Z,4.10
2018-11-20T01:46:39.725Z,4.10
2018-11-20T01:49:08.069Z,4.20
2018-11-20T01:51:35.708Z,4.10
2018-11-20T01:54:03.262Z,4.10
2018-11-20T01:56:31.375Z,4.10
2018-11-20T01:58:58.953Z,4.10
2018-11-20T02:01:26.530Z,4.00
2018-11-20T02:03:54.899Z,4.20
2018-11-20T02:06:22.480Z,4.20
2018-11-20T02:08:50.094Z,4.20
2018-11-20T02:11:17.667Z,4.10
2018-11-20T02:13:46.459Z,4.10
2018-11-20T02:16:14.031Z,4.10
2018-11-20T02:18:41.612Z,4.10
2018-11-20T02:21:09.975Z,4.20
2018-11-20T02:23:38.325Z,4.20
2018-11-20T02:26:05.947Z,4.20
2018-11-20T02:28:33.531Z,4.20
2018-11-20T02:31:01.134Z,4.20
2018-11-20T02:33:28.720Z,4.20
2018-11-20T02:35:57.480Z,4.10
2018-11-20T02:38:25.049Z,4.10
2018-11-20T02:40:52.643Z,4.10
2018-11-20T02:43:20.255Z,4.00
2018-11-20T02:45:47.840Z,4.00
2018-11-20T02:48:15.760Z,3.90
2018-11-20T02:50:43.598Z,3.90
2018-11-20T02:53:12.050Z,4.00
2018-11-20T02:55:39.621Z,3.90
2018-11-20T02:58:07.967Z,3.90
2018-11-20T03:00:35.822Z,3.90
2018-11-20T03:03:03.400Z,3.80
2018-11-20T03:05:30.998Z,3.80
2018-11-20T03:07:59.350Z,3.80
2018-11-20T03:10:26.955Z,3.80
2018-11-20T03:12:54.536Z,3.80
2018-11-20T03:15:22.204Z,3.70
2018-11-20T03:17:49.797Z,3.70
2018-11-20T03:20:17.378Z,3.70
2018-11-20T03:22:44.986Z,3.70
2018-11-20T03:25:15.044Z,3.70
2018-11-20T03:27:42.647Z,3.70
2018-11-20T03:30:10.239Z,3.70
2018-11-20T03:32:37.872Z,3.70
2018-11-20T03:35:06.225Z,3.80
2018-11-20T03:37:33.798Z,3.70
2018-11-20T03:40:02.171Z,3.80
2018-11-20T03:42:30.522Z,3.80
2018-11-20T03:44:58.134Z,3.80
2018-11-20T03:47:25.719Z,3.80
2018-11-20T03:49:53.300Z,3.90
2018-11-20T03:52:20.899Z,3.90
2018-11-20T03:54:49.251Z,3.90
2018-11-20T03:57:16.858Z,3.90
2018-11-20T03:59:44.472Z,3.90
2018-11-20T04:02:12.067Z,3.90
2018-11-20T04:04:40.418Z,3.80
2018-11-20T04:07:08.103Z,3.80
2018-11-20T04:09:35.667Z,3.80
2018-11-20T04:12:03.244Z,3.90
2018-11-20T04:14:31.624Z,3.90
2018-11-20T04:16:59.988Z,3.90
2018-11-20T04:19:27.601Z,3.90
2018-11-20T04:21:55.188Z,3.90
2018-11-20T04:24:22.790Z,3.90
2018-11-20T04:26:51.141Z,3.90
2018-11-20T04:29:18.718Z,3.90
2018-11-20T04:31:47.094Z,3.90
2018-11-20T04:34:14.672Z,3.90
2018-11-20T04:36:42.284Z,3.80
2018-11-20T04:39:09.862Z,3.80
2018-11-20T04:41:37.468Z,3.80
2018-11-20T04:44:05.050Z,3.70
2018-11-20T04:46:32.681Z,3.90
2018-11-20T04:49:01.024Z,3.90
2018-11-20T04:51:28.615Z,3.90
2018-11-20T04:53:56.221Z,3.80
2018-11-20T04:56:23.810Z,3.80
2018-11-20T04:58:51.414Z,3.70
2018-11-20T05:01:19.009Z,3.70
2018-11-20T05:03:46.619Z,3.60
2018-11-20T05:06:14.966Z,3.50
2018-11-20T05:08:42.961Z,3.50
2018-11-20T05:11:10.543Z,3.50
2018-11-20T05:13:38.893Z,3.50
2018-11-20T05:16:06.544Z,3.50
2018-11-20T05:18:34.122Z,3.50
2018-11-20T05:21:01.731Z,3.50
2018-11-20T05:23:29.321Z,3.50
2018-11-20T05:25:57.411Z,3.50
2018-11-20T05:28:24.988Z,3.50
2018-11-20T05:30:52.600Z,3.50
2018-11-20T05:33:20.215Z,3.50
2018-11-20T05:35:47.792Z,3.40
2018-11-20T05:38:16.221Z,3.40
2018-11-20T05:40:43.805Z,3.40
2018-11-20T05:43:11.401Z,3.40
2018-11-20T05:45:39.027Z,3.40
2018-11-20T05:48:06.613Z,3.40
2018-11-20T05:50:34.963Z,3.40
2018-11-20T05:53:02.601Z,3.40
2018-11-20T05:55:30.182Z,3.40
2018-11-20T05:57:57.775Z,3.50
2018-11-20T06:00:25.419Z,3.70
2018-11-20T06:02:52.999Z,3.90
2018-11-20T06:05:20.579Z,4.00
2018-11-20T06:07:48.192Z,4.00
2018-11-20T06:10:15.826Z,3.90
2018-11-20T06:12:43.522Z,3.80
2018-11-20T06:15:11.001Z,3.80
2018-11-20T06:17:38.659Z,3.80
2018-11-20T06:20:06.237Z,3.80
2018-11-20T06:22:34.584Z,3.70
2018-11-20T06:25:02.211Z,3.70
2018-11-20T06:27:29.790Z,3.70
2018-11-20T06:30:00.188Z,3.80
2018-11-20T06:32:28.274Z,3.80
2018-11-20T06:34:55.870Z,3.80
2018-11-20T06:37:23.448Z,3.80
2018-11-20T06:39:51.057Z,3.80
2018-11-20T06:42:18.628Z,3.70
2018-11-20T06:44:46.256Z,3.70
2018-11-20T06:47:13.847Z,3.60
2018-11-20T06:49:41.419Z,3.60
2018-11-20T06:52:09.041Z,3.60
2018-11-20T06:54:36.614Z,3.60
2018-11-20T06:57:04.192Z,3.60
2018-11-20T06:59:31.816Z,3.60
2018-11-20T07:01:59.396Z,3.60
2018-11-20T07:04:26.986Z,3.60
2018-11-20T07:06:54.616Z,3.60
2018-11-20T07:09:22.199Z,3.60
2018-11-20T07:11:49.778Z,3.60
2018-11-20T07:14:17.754Z,3.60
2018-11-20T07:16:45.341Z,3.60
2018-11-20T07:19:13.012Z,3.50
2018-11-20T07:21:40.587Z,3.50
2018-11-20T07:24:08.939Z,3.60
2018-11-20T07:26:36.555Z,3.60
2018-11-20T07:29:04.137Z,3.70
2018-11-20T07:31:31.739Z,3.70
2018-11-20T07:33:59.355Z,3.70
2018-11-20T07:36:27.010Z,3.70
2018-11-20T07:38:54.511Z,3.70
2018-11-20T07:41:22.122Z,3.70
2018-11-20T07:43:49.901Z,3.70
2018-11-20T07:46:18.113Z,3.70
2018-11-20T07:48:45.689Z,3.70
2018-11-20T07:51:13.302Z,3.70
2018-11-20T07:53:40.951Z,3.80
2018-11-20T07:56:08.622Z,3.90
2018-11-20T07:58:36.114Z,3.80
2018-11-20T08:01:04.522Z,3.90
2018-11-20T08:03:32.093Z,3.90
2018-11-20T08:06:00.443Z,4.10
2018-11-20T08:08:28.142Z,4.10
2018-11-20T08:10:55.650Z,4.20
2018-11-20T08:13:23.230Z,4.20
2018-11-20T08:15:50.905Z,4.10
2018-11-20T08:18:18.446Z,4.10
2018-11-20T08:20:46.028Z,4.00
2018-11-20T08:23:13.641Z,4.00
2018-11-20T08:25:41.275Z,4.00
2018-11-20T08:28:08.843Z,4.10
2018-11-20T08:30:36.423Z,4.20
2018-11-20T08:33:04.028Z,4.20
2018-11-20T08:35:31.602Z,4.20
2018-11-20T08:37:59.233Z,4.10
2018-11-20T08:40:26.824Z,4.20
2018-11-20T08:42:54.415Z,4.20
2018-11-20T08:45:23.184Z,4.20
2018-11-20T08:47:51.656Z,4.30
2018-11-20T08:50:19.110Z,4.30
2018-11-20T08:52:47.913Z,4.20
2018-11-20T08:55:15.469Z,4.30
2018-11-20T08:57:43.053Z,4.30
2018-11-20T09:00:10.699Z,4.30
2018-11-20T09:02:38.395Z,4.30
2018-11-20T09:05:06.622Z,4.20
2018-11-20T09:07:34.229Z,4.20
2018-11-20T09:10:01.935Z,4.10
2018-11-20T09:12:29.649Z,4.10
2018-11-20T09:14:57.277Z,4.20
2018-11-20T09:17:24.851Z,4.20
2018-11-20T09:19:52.431Z,4.10
2018-11-20T09:22:20.799Z,4.10
2018-11-20T09:24:49.650Z,4.10
2018-11-20T09:27:17.250Z,4.10
2018-11-20T09:29:44.834Z,4.10
2018-11-20T09:32:12.447Z,4.20
2018-11-20T09:34:40.137Z,4.20
2018-11-20T09:37:08.470Z,4.50
2018-11-20T09:39:36.060Z,4.50
2018-11-20T09:42:03.639Z,4.60
2018-11-20T09:44:31.245Z,4.70
2018-11-20T09:46:59.160Z,4.80
2018-11-20T09:49:27.340Z,4.80
2018-11-20T09:51:54.929Z,4.80
2018-11-20T09:54:23.308Z,4.70
2018-11-20T09:56:50.899Z,4.70
2018-11-20T09:59:18.539Z,4.70
2018-11-20T10:01:46.114Z,4.60
2018-11-20T10:04:14.440Z,4.70
2018-11-20T10:06:42.746Z,4.70
2018-11-20T10:09:11.101Z,4.80
2018-11-20T10:11:38.683Z,4.80
2018-11-20T10:14:07.069Z,4.80
2018-11-20T10:16:34.633Z,4.80
2018-11-20T10:19:02.243Z,4.80
2018-11-20T10:21:29.889Z,4.70
2018-11-20T10:23:58.351Z,4.70
2018-11-20T10:26:26.323Z,4.70
2018-11-20T10:28:53.839Z,4.80
2018-11-20T10:31:21.820Z,4.90
2018-11-20T10:33:49.403Z,5.00
2018-11-20T10:36:17.758Z,5.20
2018-11-20T10:38:45.402Z,5.20
2018-11-20T10:41:12.989Z,5.30
2018-11-20T10:43:40.572Z,5.20
2018-11-20T10:46:09.562Z,5.20
2018-11-20T10:48:37.087Z,5.20
2018-11-20T10:51:04.723Z,5.20
2018-11-20T10:53:33.056Z,5.30
2018-11-20T10:56:00.644Z,5.20
2018-11-20T10:58:28.249Z,5.30
2018-11-20T11:00:55.822Z,5.20
2018-11-20T11:03:23.434Z,5.20
2018-11-20T11:05:51.015Z,5.20
2018-11-20T11:08:37.166Z,5.20
2018-11-20T11:11:04.760Z,5.20
2018-11-20T11:13:32.338Z,5.30
2018-11-20T11:15:59.950Z,5.30
2018-11-20T11:18:28.374Z,5.30
2018-11-20T11:20:55.937Z,5.30
2018-11-20T11:23:23.496Z,5.30
2018-11-20T11:25:51.122Z,5.40
2018-11-20T11:28:19.468Z,5.40
2018-11-20T11:30:47.047Z,5.40
2018-11-20T11:33:14.656Z,5.40
2018-11-20T11:35:42.290Z,5.50
2018-11-20T11:38:10.755Z,5.50
2018-11-20T11:40:38.288Z,5.50
2018-11-20T11:43:05.864Z,5.40
2018-11-20T11:45:33.500Z,5.40
2018-11-20T11:48:01.083Z,5.40
2018-11-20T11:50:28.663Z,5.40
2018-11-20T11:52:57.069Z,5.30
2018-11-20T11:55:24.652Z,5.30
2018-11-20T11:57:52.240Z,5.30
2018-11-20T12:00:19.869Z,5.30
2018-11-20T12:05:14.171Z,5.30
2018-11-20T12:07:47.031Z,5.30
2018-11-20T12:10:09.880Z,5.40
2018-11-20T12:12:38.239Z,5.50
2018-11-20T12:15:05.873Z,5.50
2018-11-20T12:17:33.945Z,5.60
2018-11-20T12:20:01.529Z,5.60
2018-11-20T12:22:29.703Z,5.60
2018-11-20T12:24:57.297Z,5.60
2018-11-20T12:27:24.878Z,5.60
2018-11-20T12:29:52.501Z,5.60
2018-11-20T12:32:20.105Z,5.60
2018-11-20T12:34:48.445Z,5.60
2018-11-20T12:37:16.509Z,5.60
2018-11-20T12:39:44.096Z,5.60
2018-11-20T12:42:12.459Z,5.60
2018-11-20T12:44:40.079Z,5.60
2018-11-20T12:47:09.344Z,5.70
2018-11-20T12:49:35.251Z,5.70
2018-11-20T12:52:05.924Z,5.70
2018-11-20T12:54:31.255Z,5.70
2018-11-20T12:56:58.840Z,5.70
2018-11-20T12:59:26.469Z,5.70
2018-11-20T13:01:55.071Z,5.70
2018-11-20T13:04:21.635Z,5.80
2018-11-20T13:06:49.266Z,5.90
2018-11-20T13:09:16.848Z,5.90
2018-11-20T13:11:44.442Z,6.00
2018-11-20T13:14:12.074Z,6.00
2018-11-20T13:16:39.659Z,6.20
2018-11-20T13:19:08.003Z,6.20
2018-11-20T13:21:38.697Z,6.20
2018-11-20T13:24:04.254Z,6.20
2018-11-20T13:26:31.839Z,6.20
2018-11-20T13:28:59.468Z,6.20
2018-11-20T13:31:27.052Z,6.10
2018-11-20T13:33:54.639Z,6.10
2018-11-20T13:36:23.683Z,6.00
2018-11-20T13:38:52.125Z,6.00
2018-11-20T13:41:25.302Z,6.00
2018-11-20T13:43:54.072Z,6.00
2018-11-20T13:46:21.660Z,6.00
2018-11-20T13:48:51.870Z,6.20
2018-11-20T13:51:17.614Z,6.10
2018-11-20T13:53:45.193Z,6.20
2018-11-20T13:56:14.632Z,6.20
2018-11-20T13:58:42.233Z,6.10
2018-11-20T14:01:10.578Z,6.10
2018-11-20T14:03:42.862Z,6.00
2018-11-20T14:06:06.140Z,6.00
2018-11-20T14:08:33.732Z,5.90
2018-11-20T14:11:01.381Z,5.90
2018-11-20T14:13:28.970Z,5.90
2018-11-20T14:15:56.558Z,5.80
2018-11-20T14:18:24.183Z,5.80
2018-11-20T14:20:51.765Z,5.90
2018-11-20T14:23:19.342Z,5.90
2018-11-20T14:25:46.986Z,6.00
2018-11-20T14:28:15.058Z,6.00
2018-11-20T14:30:42.645Z,6.00
2018-11-20T14:33:10.717Z,6.00
2018-11-20T14:35:38.561Z,6.00
2018-11-20T14:38:06.144Z,6.10
2018-11-20T14:40:33.769Z,6.20
2018-11-20T14:43:01.356Z,6.10
2018-11-20T14:45:28.935Z,6.00
2018-11-20T14:47:56.586Z,5.90
2018-11-20T14:50:24.170Z,5.80
2018-11-20T14:52:51.759Z,5.80
2018-11-20T14:55:20.198Z,5.70
2018-11-20T14:57:47.775Z,5.70
2018-11-20T15:00:15.361Z,5.60
2018-11-20T15:02:43.500Z,5.50
2018-11-20T15:05:11.075Z,5.40
2018-11-20T15:07:39.423Z,5.40
2018-11-20T15:10:07.085Z,5.40
2018-11-20T15:12:34.668Z,5.50
2018-11-20T15:15:02.251Z,5.40
2018-11-20T15:17:30.658Z,5.40
2018-11-20T15:19:58.233Z,5.40
2018-11-20T15:22:25.804Z,5.30
2018-11-20T15:24:53.773Z,5.40
2018-11-20T15:27:21.357Z,5.40
2018-11-20T15:29:48.939Z,5.40
2018-11-20T15:32:17.331Z,5.40
2018-11-20T15:34:45.688Z,5.40
2018-11-20T15:37:13.273Z,5.40
2018-11-20T15:39:41.671Z,5.60
2018-11-20T15:42:09.246Z,5.50
2018-11-20T15:44:36.835Z,5.60
2018-11-20T15:47:04.998Z,5.50
2018-11-20T15:49:35.124Z,5.50
2018-11-20T15:52:00.216Z,5.50
2018-11-20T15:54:27.795Z,5.50
2018-11-20T15:56:55.379Z,5.60
2018-11-20T15:59:23.316Z,5.60
2018-11-20T16:01:50.895Z,5.70
2018-11-20T16:04:18.473Z,5.60
2018-11-20T16:06:46.445Z,5.50
2018-11-20T16:09:14.032Z,5.60
2018-11-20T16:11:41.617Z,5.70
2018-11-20T16:14:09.241Z,5.70
2018-11-20T16:16:36.832Z,5.60
2018-11-20T16:19:04.420Z,5.60
2018-11-20T16:21:32.044Z,5.50
2018-11-20T16:24:00.901Z,5.40
2018-11-20T16:26:28.488Z,5.30
2018-11-20T16:28:56.483Z,5.20
2018-11-20T16:31:24.054Z,5.10
2018-11-20T16:33:51.643Z,5.10
2018-11-20T16:36:19.279Z,5.00
2018-11-20T16:38:46.851Z,5.00
2018-11-20T16:41:14.450Z,5.00
2018-11-20T16:43:42.062Z,5.00
2018-11-20T16:46:09.650Z,5.10
2018-11-20T16:48:37.280Z,5.10
2018-11-20T16:51:04.869Z,5.10
2018-11-20T16:53:32.466Z,5.30
2018-11-20T16:56:00.865Z,5.40
2018-11-20T16:58:28.447Z,5.40
2018-11-20T17:00:56.037Z,5.50
2018-11-20T17:03:24.105Z,5.40
2018-11-20T17:05:51.686Z,5.40
2018-11-20T17:08:19.289Z,5.40
2018-11-20T17:10:46.890Z,5.40
2018-11-20T17:13:14.475Z,5.40
2018-11-20T17:15:42.079Z,5.40
2018-11-20T17:18:10.083Z,5.40
2018-11-20T17:20:37.695Z,5.40
2018-11-20T17:23:08.224Z,5.40
2018-11-20T17:25:33.649Z,5.30
2018-11-20T17:28:01.238Z,5.30
2018-11-20T17:30:29.860Z,5.30
2018-11-20T17:32:57.454Z,5.20
2018-11-20T17:35:25.799Z,5.30
2018-11-20T17:37:53.405Z,5.30
2018-11-20T17:40:21.146Z,5.30
2018-11-20T17:42:48.636Z,5.30
2018-11-20T17:45:16.949Z,5.40
2018-11-20T17:47:44.614Z,5.40
2018-11-20T17:50:12.186Z,5.40
2018-11-20T17:52:39.783Z,5.30
2018-11-20T17:55:08.164Z,5.40
2018-11-20T17:57:35.750Z,5.40
2018-11-20T18:00:03.365Z,5.40
2018-11-20T18:02:30.947Z,5.40
2018-11-20T18:04:58.559Z,5.30
2018-11-20T18:07:26.140Z,5.20
2018-11-20T18:09:54.109Z,5.20
2018-11-20T18:12:21.688Z,5.20
2018-11-20T18:14:50.036Z,5.30
2018-11-20T18:17:20.477Z,5.30
2018-11-20T18:19:45.222Z,5.30
2018-11-20T18:22:12.831Z,5.30
2018-11-20T18:24:40.417Z,5.20
2018-11-20T18:27:08.806Z,5.20
2018-11-20T18:29:37.171Z,5.10
2018-11-20T18:32:04.748Z,5.10
2018-11-20T18:34:32.362Z,5.10
2018-11-20T18:36:59.945Z,5.10
2018-11-20T18:39:27.550Z,5.10
2018-11-20T18:41:55.138Z,5.00
2018-11-20T18:44:22.863Z,5.00
2018-11-20T18:46:51.209Z,4.90
2018-11-20T18:49:19.259Z,4.90
2018-11-20T18:51:46.884Z,4.90
2018-11-20T18:54:14.478Z,4.90
2018-11-20T18:56:42.055Z,4.80
2018-11-20T18:59:11.466Z,4.70
2018-11-20T19:01:39.039Z,4.70
2018-11-20T19:04:06.659Z,4.60
2018-11-20T19:06:34.265Z,4.50
2018-11-20T19:09:01.851Z,4.60
2018-11-20T19:11:30.297Z,4.70
2018-11-20T19:13:57.835Z,4.70
2018-11-20T19:16:25.412Z,4.70
2018-11-20T19:18:52.990Z,4.60
2018-11-20T19:21:21.072Z,4.50
2018-11-20T19:23:49.421Z,4.50
2018-11-20T19:26:17.001Z,4.50
2018-11-20T19:28:44.660Z,4.50
2018-11-20T19:31:12.206Z,4.50
2018-11-20T19:33:39.793Z,4.50
2018-11-20T19:36:07.446Z,4.60
2018-11-20T19:38:35.008Z,4.50
2018-11-20T19:41:02.597Z,4.40
2018-11-20T19:43:30.255Z,4.40
2018-11-20T19:45:57.838Z,4.30
2018-11-20T19:48:25.411Z,4.30
2018-11-20T19:50:57.783Z,4.20
2018-11-20T19:53:20.622Z,4.20
2018-11-20T19:55:48.200Z,4.10
2018-11-20T19:58:15.809Z,4.10
2018-11-20T20:01:10.433Z,4.10
2018-11-20T20:03:37.146Z,4.20
2018-11-20T20:08:42.037Z,4.20
2018-11-20T20:11:09.620Z,4.20
2018-11-20T20:13:37.208Z,4.20
2018-11-20T20:16:04.873Z,4.20
2018-11-20T20:18:32.461Z,4.20
2018-11-20T20:21:00.827Z,4.30
2018-11-20T20:23:29.360Z,4.30
2018-11-20T20:25:56.967Z,4.30
2018-11-20T20:28:24.626Z,4.30
2018-11-20T20:30:52.398Z,4.20
2018-11-20T20:33:20.005Z,4.30
2018-11-20T20:35:47.617Z,4.40
2018-11-20T20:38:15.254Z,4.50
2018-11-20T20:40:42.868Z,4.50
2018-11-20T20:43:11.219Z,4.50
2018-11-20T20:45:38.802Z,4.50
2018-11-20T20:48:06.945Z,4.60
2018-11-20T20:50:34.504Z,4.80
2018-11-20T20:53:02.132Z,4.80
2018-11-20T20:55:29.713Z,4.80
2018-11-20T20:57:57.351Z,4.80
2018-11-20T21:00:25.003Z,4.80
2018-11-20T21:02:53.344Z,4.80
2018-11-20T21:05:20.955Z,4.80
2018-11-20T21:07:48.612Z,4.70
2018-11-20T21:10:16.684Z,4.80
2018-11-20T21:12:44.261Z,4.80
2018-11-20T21:15:11.840Z,4.80
2018-11-20T21:17:39.472Z,4.90
2018-11-20T21:20:07.055Z,5.10
2018-11-20T21:22:35.811Z,5.20
2018-11-20T21:25:04.204Z,5.10
2018-11-20T21:27:31.801Z,5.10
2018-11-20T21:29:59.666Z,5.10
2018-11-20T21:32:27.243Z,5.10
2018-11-20T21:34:55.239Z,5.10
2018-11-20T21:40:43.132Z,5.10
2018-11-20T21:43:31.196Z,5.10
2018-11-20T21:46:32.004Z,5.10
2018-11-20T21:51:44.769Z,5.30
2018-11-20T21:54:12.352Z,5.30
2018-11-20T21:56:40.213Z,5.30
2018-11-20T21:59:07.785Z,5.30
2018-11-20T22:01:35.392Z,5.40
2018-11-20T22:04:03.750Z,5.40
2018-11-20T22:06:31.381Z,5.40
2018-11-20T22:08:58.966Z,5.30
2018-11-20T22:11:26.558Z,5.30
2018-11-20T22:13:54.185Z,5.30
2018-11-20T22:16:21.763Z,5.30
2018-11-20T22:18:49.340Z,5.20
2018-11-20T22:21:17.722Z,5.20
2018-11-20T22:23:46.065Z,5.20
2018-11-20T22:26:13.720Z,5.20
2018-11-20T22:28:41.304Z,5.20
2018-11-20T22:31:08.885Z,5.20
2018-11-20T22:33:37.284Z,5.10
2018-11-20T22:36:04.879Z,5.10
2018-11-20T22:38:32.456Z,5.20
2018-11-20T22:41:00.071Z,5.10
2018-11-20T22:43:27.647Z,5.10
2018-11-20T22:45:55.272Z,5.10
2018-11-20T22:48:23.617Z,5.10
2018-11-20T22:50:51.213Z,5.10
2018-11-20T22:53:19.582Z,5.20
2018-11-20T22:55:47.170Z,5.20
2018-11-20T22:58:14.774Z,5.20
2018-11-20T23:00:42.355Z,5.20
2018-11-20T23:03:10.078Z,5.20
2018-11-20T23:05:37.145Z,5.20
2018-11-20T23:08:04.730Z,5.20
2018-11-20T23:10:32.345Z,5.20
2018-11-20T23:12:59.924Z,5.20
2018-11-20T23:15:27.549Z,5.20
2018-11-20T23:17:55.130Z,5.20
2018-11-20T23:20:22.717Z,5.20
2018-11-20T23:22:50.338Z,5.20
2018-11-20T23:25:18.680Z,5.20
2018-11-20T23:27:47.165Z,5.20
2018-11-20T23:30:14.744Z,5.20
2018-11-20T23:32:43.105Z,5.40
2018-11-20T23:35:10.735Z,5.40
2018-11-20T23:37:38.314Z,5.40
2018-11-20T23:40:05.914Z,5.40
2018-11-20T23:42:33.545Z,5.40
2018-11-20T23:45:01.126Z,5.50
2018-11-20T23:47:28.708Z,5.50
2018-11-20T23:49:56.344Z,5.60
2018-11-20T23:52:23.924Z,5.60
2018-11-20T23:54:52.276Z,5.50
2018-11-20T23:57:19.889Z,5.50
2018-11-20T23:59:47.465Z,5.50
